createdAt,value
2018-12-04T00:04:26.932Z,98.449707
2018-12-04T00:09:49.957Z,98.345947
2018-12-04T00:15:12.867Z,99.21875
2018-12-04T00:20:35.688Z,98.596191
2018-12-04T00:25:58.366Z,98.907471
2018-12-04T00:31:21.272Z,99.42627
2018-12-04T00:36:44.213Z,99.938965
2018-12-04T00:42:07.012Z,99.993896
2018-12-04T00:47:30.112Z,99.993896
2018-12-04T00:52:52.749Z,99.993896
2018-12-04T00:58:15.482Z,99.993896
2018-12-04T01:03:38.112Z,99.993896
2018-12-04T01:09:00.777Z,99.993896
2018-12-04T01:14:23.591Z,99.993896
2018-12-04T01:19:46.187Z,99.993896
2018-12-04T01:25:09.480Z,99.993896
2018-12-04T01:30:32.253Z,99.993896
2018-12-04T01:35:55.776Z,99.993896
2018-12-04T01:41:18.420Z,99.993896
2018-12-04T01:46:41.067Z,99.993896
2018-12-04T01:52:03.704Z,99.993896
2018-12-04T01:57:26.340Z,99.993896
2018-12-04T02:02:49.167Z,99.993896
2018-12-04T02:08:18.644Z,99.822998
2018-12-04T02:13:41.313Z,99.993896
2018-12-04T02:19:03.930Z,99.993896
2018-12-04T02:24:26.581Z,99.993896
2018-12-04T02:29:49.339Z,99.517822
2018-12-04T02:35:12.159Z,99.468994
2018-12-04T02:40:34.772Z,98.852539
2018-12-04T02:45:57.415Z,99.993896
2018-12-04T02:51:20.348Z,99.102783
2018-12-04T02:56:43.230Z,99.621582
2018-12-04T03:02:05.988Z,99.206543
2018-12-04T03:07:28.735Z,98.791504
2018-12-04T03:12:51.438Z,99.151611
2018-12-04T03:18:14.153Z,99.102783
2018-12-04T03:23:36.917Z,99.249268
2018-12-04T03:28:58.549Z,98.425293
2018-12-04T03:34:21.303Z,98.529053
2018-12-04T03:39:43.967Z,98.736572
2018-12-04T03:45:07.294Z,98.529053
2018-12-04T03:50:30.024Z,98.321533
2018-12-04T03:55:52.711Z,97.906494
2018-12-04T04:01:15.388Z,98.370361
2018-12-04T04:06:38.235Z,98.779297
2018-12-04T04:12:00.996Z,99.243164
2018-12-04T04:17:23.681Z,99.035645
2018-12-04T04:22:46.356Z,99.432373
2018-12-04T04:28:08.983Z,99.432373
2018-12-04T04:33:31.658Z,99.023438
2018-12-04T04:38:55.246Z,99.688721
2018-12-04T04:44:17.973Z,99.731445
2018-12-04T04:49:43.752Z,98.443604
2018-12-04T04:55:06.437Z,98.284912
2018-12-04T05:00:29.276Z,98.596191
2018-12-04T05:05:52.027Z,98.388672
2018-12-04T05:11:14.880Z,98.388672
2018-12-04T05:16:37.666Z,98.327637
2018-12-04T05:22:00.315Z,98.742676
2018-12-04T05:27:23.147Z,99.615479
2018-12-04T05:32:45.873Z,99.414062
2018-12-04T05:38:08.863Z,99.993896
2018-12-04T05:43:31.550Z,99.993896
2018-12-04T05:48:54.845Z,99.993896
2018-12-04T05:54:18.347Z,99.993896
2018-12-04T05:59:42.957Z,99.993896
2018-12-04T06:05:05.699Z,99.993896
2018-12-04T06:10:28.603Z,99.993896
2018-12-04T06:15:51.418Z,99.993896
2018-12-04T06:21:14.822Z,99.993896
2018-12-04T06:26:37.462Z,99.993896
2018-12-04T06:32:00.160Z,99.993896
2018-12-04T06:37:23.247Z,99.993896
2018-12-04T06:42:46.363Z,99.993896
2018-12-04T06:48:10.279Z,99.993896
2018-12-04T06:53:34.594Z,99.993896
2018-12-04T06:58:57.333Z,99.993896
2018-12-04T07:04:20.094Z,99.993896
2018-12-04T07:09:42.901Z,99.993896
2018-12-04T07:15:05.924Z,99.993896
2018-12-04T07:20:29.432Z,99.993896
2018-12-04T07:25:56.892Z,99.993896
2018-12-04T07:31:19.601Z,99.993896
2018-12-04T07:36:42.998Z,99.993896
2018-12-04T07:42:06.049Z,99.993896
2018-12-04T07:47:29.752Z,99.993896
2018-12-04T07:52:52.878Z,99.993896
2018-12-04T07:58:15.853Z,99.993896
2018-12-04T08:03:38.336Z,99.993896
2018-12-04T08:09:01.019Z,99.993896
2018-12-04T08:14:23.824Z,99.993896
2018-12-04T08:19:52.428Z,99.993896
2018-12-04T08:25:15.561Z,99.993896
2018-12-04T08:30:38.171Z,99.993896
2018-12-04T08:36:00.823Z,99.993896
2018-12-04T08:41:23.978Z,98.480225
2018-12-04T08:46:47.145Z,99.145508
2018-12-04T08:52:10.575Z,97.961426
2018-12-04T08:57:33.376Z,97.546387
2018-12-04T09:02:57.056Z,97.192383
2018-12-04T09:08:20.248Z,95.947266
2018-12-04T09:13:43.314Z,96.984863
2018-12-04T09:19:07.371Z,95.489502
2018-12-04T09:24:30.769Z,94.20166
2018-12-04T09:29:52.846Z,93.994141
2018-12-04T09:35:16.149Z,94.470215
2018-12-04T09:40:38.938Z,92.810059
2018-12-04T09:46:01.797Z,93.493652
2018-12-04T09:51:24.716Z,91.278076
2018-12-04T09:56:50.856Z,89.935303
2018-12-04T10:02:13.516Z,90.350342
2018-12-04T10:07:36.682Z,88.549805
2018-12-04T10:12:59.617Z,91.400146
2018-12-04T10:18:22.877Z,89.129639
2018-12-04T10:23:45.755Z,85.308838
2018-12-04T10:29:08.645Z,85.064697
2018-12-04T10:34:31.457Z,85.369873
2018-12-04T10:39:54.168Z,84.857178
2018-12-04T10:45:16.894Z,85.021973
2018-12-04T10:50:39.591Z,84.881592
2018-12-04T10:56:02.366Z,83.709717
2018-12-04T11:01:25.057Z,84.637451
2018-12-04T11:06:47.778Z,84.362793
2018-12-04T11:12:12.304Z,86.700439
2018-12-04T11:17:33.259Z,82.885742
2018-12-04T11:22:55.958Z,82.739258
2018-12-04T11:28:19.670Z,84.143066
2018-12-04T11:33:42.344Z,83.013916
2018-12-04T11:39:05.052Z,79.962158
2018-12-04T11:44:27.767Z,80.023193
2018-12-04T11:49:51.080Z,79.199219
2018-12-04T11:55:13.782Z,79.302979
2018-12-04T12:00:36.648Z,78.894043
2018-12-04T12:05:59.390Z,78.375244
2018-12-04T12:11:22.087Z,76.898193
2018-12-04T12:16:44.837Z,76.074219
2018-12-04T12:22:07.502Z,76.556396
2018-12-04T12:27:31.248Z,75.219727
2018-12-04T12:32:54.102Z,72.576904
2018-12-04T12:38:16.715Z,73.779297
2018-12-04T12:43:40.195Z,72.955322
2018-12-04T12:49:02.973Z,75.628662
2018-12-04T12:54:25.645Z,72.644043
2018-12-04T12:59:48.316Z,75.012207
2018-12-04T13:05:10.975Z,73.297119
2018-12-04T13:10:33.785Z,73.809814
2018-12-04T13:15:56.496Z,74.42627
2018-12-04T13:21:19.668Z,75.90332
2018-12-04T13:26:42.354Z,74.462891
2018-12-04T13:32:05.042Z,74.87793
2018-12-04T13:37:27.676Z,73.260498
2018-12-04T13:42:50.529Z,73.779297
2018-12-04T13:48:13.378Z,75.012207
2018-12-04T13:53:36.147Z,70.996094
2018-12-04T13:58:58.819Z,71.508789
2018-12-04T14:04:23.591Z,69.86084
2018-12-04T14:09:46.366Z,71.203613
2018-12-04T14:15:09.065Z,69.348145
2018-12-04T14:20:31.789Z,69.891357
2018-12-04T14:25:55.359Z,70.715332
2018-12-04T14:31:18.349Z,70.306396
2018-12-04T14:36:41.174Z,71.679688
2018-12-04T14:42:04.859Z,73.052979
2018-12-04T14:47:27.601Z,76.66626
2018-12-04T14:52:50.304Z,76.904297
2018-12-04T14:58:13.078Z,78.387451
2018-12-04T15:03:35.723Z,81.25
2018-12-04T15:08:58.585Z,85.296631
2018-12-04T15:14:21.257Z,87.591553
2018-12-04T15:19:44.175Z,89.398193
2018-12-04T15:25:06.883Z,90.307617
2018-12-04T15:30:30.602Z,92.529297
2018-12-04T15:35:53.319Z,93.823242
2018-12-04T15:41:16.025Z,93.615723
2018-12-04T15:46:38.742Z,94.177246
2018-12-04T15:52:01.461Z,95.111084
2018-12-04T15:57:24.166Z,94.42749
2018-12-04T16:02:46.886Z,94.842529
2018-12-04T16:08:09.607Z,95.300293
2018-12-04T16:13:32.255Z,95.196533
2018-12-04T16:18:54.949Z,96.179199
2018-12-04T16:24:18.599Z,95.86792
2018-12-04T16:29:41.335Z,96.386719
2018-12-04T16:35:04.029Z,95.300293
2018-12-04T16:40:27.443Z,95.092773
2018-12-04T16:45:49.438Z,94.158936
2018-12-04T16:51:12.232Z,95.495605
2018-12-04T16:56:34.897Z,97.058105
2018-12-04T17:01:57.599Z,96.374512
2018-12-04T17:07:20.276Z,97.351074
2018-12-04T17:12:43.095Z,97.399902
2018-12-04T17:18:05.801Z,98.425293
2018-12-04T17:23:28.426Z,99.993896
2018-12-04T17:28:51.131Z,98.858643
2018-12-04T17:34:13.812Z,97.814941
2018-12-04T17:39:36.546Z,97.802734
2018-12-04T17:44:59.295Z,99.621582
2018-12-04T17:50:21.991Z,99.993896
2018-12-04T17:55:44.816Z,99.993896
2018-12-04T18:01:07.660Z,99.993896
2018-12-04T18:06:30.429Z,99.993896
2018-12-04T18:11:53.925Z,99.993896
2018-12-04T18:17:17.025Z,99.676514
2018-12-04T18:22:39.673Z,99.993896
2018-12-04T18:28:02.426Z,99.993896
2018-12-04T18:33:25.252Z,99.09668
2018-12-04T18:38:48.104Z,99.993896
2018-12-04T18:44:10.833Z,99.993896
2018-12-04T18:49:33.583Z,99.993896
2018-12-04T18:54:56.264Z,99.993896
2018-12-04T19:00:18.982Z,99.505615
2018-12-04T19:05:41.705Z,99.993896
2018-12-04T19:11:04.374Z,99.993896
2018-12-04T19:16:27.045Z,99.993896
2018-12-04T19:21:49.890Z,99.993896
2018-12-04T19:27:12.966Z,99.993896
2018-12-04T19:32:36.001Z,99.993896
2018-12-04T19:37:58.959Z,99.993896
2018-12-04T19:43:22.253Z,99.993896
2018-12-04T19:48:45.238Z,99.993896
2018-12-04T19:54:08.905Z,99.993896
2018-12-04T19:59:39.996Z,99.993896
2018-12-04T20:05:08.154Z,99.993896
2018-12-04T20:10:33.922Z,99.993896
2018-12-04T20:16:05.444Z,99.993896
2018-12-04T20:21:58.460Z,99.993896
2018-12-04T20:27:21.466Z,99.993896
2018-12-04T20:32:48.786Z,99.993896
2018-12-04T20:38:25.099Z,99.993896
2018-12-04T20:43:53.207Z,99.993896
2018-12-04T20:49:16.030Z,99.993896
2018-12-04T20:54:39.664Z,99.993896
2018-12-04T21:00:02.804Z,99.993896
2018-12-04T21:05:27.141Z,99.993896
2018-12-04T21:10:50.986Z,99.993896
2018-12-04T21:16:13.780Z,99.993896
2018-12-04T21:21:37.692Z,99.993896
2018-12-04T21:27:01.154Z,99.993896
2018-12-04T21:32:24.792Z,99.993896
2018-12-04T21:37:46.790Z,99.993896
2018-12-04T21:43:09.396Z,99.993896
2018-12-04T21:48:32.640Z,99.993896
2018-12-04T21:53:55.324Z,99.993896
2018-12-04T21:59:18.011Z,99.993896
2018-12-04T22:04:40.853Z,99.993896
2018-12-04T22:10:03.780Z,99.993896
2018-12-04T22:15:26.604Z,99.993896
2018-12-04T22:20:49.350Z,99.993896
2018-12-04T22:26:12.220Z,99.993896
2018-12-04T22:31:34.899Z,99.993896
2018-12-04T22:36:57.579Z,99.993896
2018-12-04T22:42:20.315Z,99.993896
2018-12-04T22:47:43.750Z,99.993896
2018-12-04T22:53:06.473Z,99.993896
2018-12-04T22:58:29.181Z,99.993896
2018-12-04T23:03:51.908Z,99.993896
2018-12-04T23:09:15.616Z,99.993896
2018-12-04T23:14:38.404Z,99.993896
2018-12-04T23:20:01.189Z,99.993896
2018-12-04T23:25:23.929Z,99.993896
2018-12-04T23:30:46.624Z,99.993896
2018-12-04T23:36:09.439Z,99.993896
2018-12-04T23:41:32.222Z,99.993896
2018-12-04T23:46:54.956Z,99.993896
2018-12-04T23:52:17.636Z,99.993896
2018-12-04T23:57:40.538Z,99.993896
